createdAt,value
2023-01-11T00:04:40.553Z,99718.72
2023-01-11T00:09:42.084Z,99721.56
2023-01-11T00:14:43.588Z,99710.38
2023-01-11T00:19:45.090Z,99704.38
2023-01-11T00:24:46.566Z,99702.44
2023-01-11T00:29:48.049Z,99678.25
2023-01-11T00:34:49.559Z,99671.97
2023-01-11T00:39:51.542Z,99653.88
2023-01-11T00:45:11.279Z,99665.50
2023-01-11T00:50:12.748Z,99647.47
2023-01-11T00:55:14.232Z,99643.50
2023-01-11T01:00:15.887Z,99637.69
2023-01-11T01:05:17.650Z,99622.19
2023-01-11T01:10:19.347Z,99614.38
2023-01-11T01:15:20.845Z,99640.38
2023-01-11T01:20:23.141Z,99640.06
2023-01-11T01:25:24.620Z,99626.28
2023-01-11T01:30:26.082Z,99636.41
2023-01-11T01:35:27.548Z,99638.56
2023-01-11T01:40:29.025Z,99619.34
2023-01-11T01:45:30.493Z,99610.66
2023-01-11T01:50:34.607Z,99606.63
2023-01-11T01:55:38.059Z,99606.53
2023-01-11T02:00:40.664Z,99603.84
2023-01-11T02:05:42.146Z,99606.53
2023-01-11T02:10:43.597Z,99598.91
2023-01-11T02:15:45.073Z,99589.56
2023-01-11T02:21:04.368Z,99582.13
2023-01-11T02:26:30.349Z,99587.63
2023-01-11T02:31:41.827Z,99585.47
2023-01-11T02:37:10.923Z,99590.56
2023-01-11T02:42:55.386Z,99589.72
2023-01-11T02:48:00.400Z,99582.19
2023-01-11T02:53:08.726Z,99596.09
2023-01-11T02:58:11.312Z,99607.22
2023-01-11T03:03:16.389Z,99611.34
2023-01-11T03:08:35.920Z,99610.38
2023-01-11T03:13:54.912Z,99598.94
2023-01-11T03:19:34.446Z,99603.63
2023-01-11T03:25:01.745Z,99617.31
2023-01-11T03:30:11.599Z,99628.88
2023-01-11T03:35:15.710Z,99643.78
2023-01-11T03:40:25.680Z,99644.13
2023-01-11T03:45:27.192Z,99663.88
2023-01-11T03:50:28.654Z,99657.94
2023-01-11T03:55:30.507Z,99680.44
2023-01-11T04:00:32.029Z,99687.25
2023-01-11T04:05:34.101Z,99703.38
2023-01-11T04:10:35.569Z,99713.13
2023-01-11T04:15:37.087Z,99715.34
2023-01-11T04:20:40.111Z,99709.00
2023-01-11T04:25:41.591Z,99719.25
2023-01-11T04:30:43.064Z,99728.16
2023-01-11T04:35:44.878Z,99735.13
2023-01-11T04:40:47.667Z,99747.31
2023-01-11T04:45:49.578Z,99752.94
2023-01-11T04:50:51.137Z,99745.09
2023-01-11T04:55:53.530Z,99746.94
2023-01-11T05:00:55.004Z,99754.78
2023-01-11T05:06:00.246Z,99776.22
2023-01-11T05:11:03.755Z,99766.81
2023-01-11T05:16:05.471Z,99756.91
2023-01-11T05:21:07.371Z,99779.81
2023-01-11T05:26:10.343Z,99809.88
2023-01-11T05:31:11.872Z,99790.28
2023-01-11T05:36:16.711Z,99804.63
2023-01-11T05:41:19.258Z,99807.03
2023-01-11T05:46:21.757Z,99827.03
2023-01-11T05:51:23.223Z,99828.25
2023-01-11T05:56:24.789Z,99840.41
2023-01-11T06:01:26.335Z,99834.28
2023-01-11T06:06:27.863Z,99837.03
2023-01-11T06:11:29.354Z,99825.25
2023-01-11T06:16:30.871Z,99847.63
2023-01-11T06:21:32.358Z,99841.16
2023-01-11T06:26:33.816Z,99855.06
2023-01-11T06:31:35.315Z,99833.19
2023-01-11T06:36:36.783Z,99860.25
2023-01-11T06:41:38.233Z,99861.50
2023-01-11T06:46:39.777Z,99883.81
2023-01-11T06:51:41.257Z,99885.72
2023-01-11T06:56:42.758Z,99881.00
2023-01-11T07:01:44.303Z,99885.63
2023-01-11T07:06:45.801Z,99890.38
2023-01-11T07:11:47.278Z,99903.34
2023-01-11T07:16:48.746Z,99891.03
2023-01-11T07:21:50.223Z,99908.81
2023-01-11T07:26:52.564Z,99932.28
2023-01-11T07:31:54.047Z,99928.97
2023-01-11T07:36:55.510Z,99938.72
2023-01-11T07:42:15.419Z,99933.53
2023-01-11T07:47:16.880Z,99944.84
2023-01-11T07:52:18.781Z,99938.81
2023-01-11T07:57:20.297Z,99946.44
2023-01-11T08:02:21.793Z,99947.63
2023-01-11T08:07:23.273Z,99963.91
2023-01-11T08:12:43.341Z,99970.81
2023-01-11T08:17:44.862Z,99968.47
2023-01-11T08:22:46.490Z,99982.28
2023-01-11T08:27:47.965Z,99983.53
2023-01-11T08:32:49.491Z,99997.88
2023-01-11T08:37:50.977Z,100011.44
2023-01-11T08:42:58.747Z,100002.97
2023-01-11T08:48:00.228Z,100000.06
2023-01-11T08:53:01.727Z,100004.03
2023-01-11T08:58:03.200Z,100006.16
2023-01-11T09:03:04.702Z,100018.03
2023-01-11T09:08:06.453Z,100010.72
2023-01-11T09:13:07.906Z,100014.56
2023-01-11T09:18:09.432Z,100015.28
2023-01-11T09:23:10.964Z,100029.81
2023-01-11T09:28:12.421Z,100027.28
2023-01-11T09:33:13.897Z,100038.31
2023-01-11T09:38:15.388Z,100030.69
2023-01-11T09:43:16.859Z,100042.69
2023-01-11T09:48:28.748Z,100047.69
2023-01-11T09:53:34.921Z,100060.25
2023-01-11T09:58:50.964Z,100074.84
2023-01-11T10:04:33.320Z,100071.31
2023-01-11T10:18:32.895Z,100073.81
2023-01-11T10:20:40.895Z,100076.41
2023-01-11T10:25:50.184Z,100075.38
2023-01-11T10:30:57.243Z,100075.56
2023-01-11T10:36:28.656Z,100083.72
2023-01-11T10:41:52.213Z,100077.91
2023-01-11T10:46:53.766Z,100076.22
2023-01-11T10:51:57.635Z,100083.00
2023-01-11T10:57:26.757Z,100084.84
2023-01-11T11:02:46.623Z,100090.34
2023-01-11T11:08:06.397Z,100079.31
2023-01-11T11:13:23.799Z,100091.19
2023-01-11T11:18:25.320Z,100092.22
2023-01-11T11:23:28.593Z,100093.59
2023-01-11T11:28:31.377Z,100100.31
2023-01-11T11:33:39.883Z,100106.94
2023-01-11T11:38:42.442Z,100107.34
2023-01-11T11:43:45.010Z,100103.88
2023-01-11T11:49:13.091Z,100114.81
2023-01-11T11:54:34.120Z,100113.81
2023-01-11T11:59:35.589Z,100113.44
2023-01-11T12:04:49.000Z,100109.31
2023-01-11T12:09:57.203Z,100097.16
2023-01-11T12:15:15.114Z,100112.97
2023-01-11T12:20:19.216Z,100093.44
2023-01-11T12:25:25.233Z,100094.19
2023-01-11T12:30:44.882Z,100087.16
2023-01-11T12:35:56.247Z,100087.94
2023-01-11T12:41:09.934Z,100098.47
2023-01-11T12:46:39.501Z,100106.00
2023-01-11T12:52:06.947Z,100098.59
2023-01-11T12:57:18.945Z,100114.00
2023-01-11T13:02:28.626Z,100130.53
2023-01-11T13:07:45.462Z,100128.16
2023-01-11T13:12:54.331Z,100138.66
2023-01-11T13:18:18.593Z,100124.34
2023-01-11T13:23:34.347Z,100124.00
2023-01-11T13:28:38.794Z,100124.38
2023-01-11T13:33:42.633Z,100115.03
2023-01-11T13:39:10.216Z,100118.34
2023-01-11T13:44:20.939Z,100104.91
2023-01-11T13:49:41.269Z,100093.94
2023-01-11T13:55:27.627Z,100117.13
2023-01-11T14:00:42.066Z,100123.31
2023-01-11T14:06:18.739Z,100131.38
2023-01-11T14:11:44.701Z,100129.22
2023-01-11T14:17:04.047Z,100124.47
2023-01-11T14:22:43.100Z,100130.28
2023-01-11T14:28:07.923Z,100137.97
2023-01-11T14:33:34.110Z,100132.88
2023-01-11T14:39:01.769Z,100131.22
2023-01-11T14:44:20.597Z,100129.06
2023-01-11T14:49:33.399Z,100123.44
2023-01-11T14:54:39.419Z,100125.00
2023-01-11T14:59:40.954Z,100125.44
2023-01-11T15:04:57.290Z,100113.78
2023-01-11T15:10:04.168Z,100126.03
2023-01-11T15:15:07.106Z,100117.88
2023-01-11T15:20:12.904Z,100102.88
2023-01-11T15:25:24.903Z,100102.78
2023-01-11T15:30:29.253Z,100119.63
2023-01-11T15:35:32.493Z,100118.66
2023-01-11T15:40:36.809Z,100106.97
2023-01-11T15:46:31.005Z,100120.44
2023-01-11T15:51:58.140Z,100126.69
2023-01-11T15:57:11.705Z,100126.59
2023-01-11T16:02:13.036Z,100130.06
2023-01-11T16:07:26.510Z,100128.63
2023-01-11T16:12:52.578Z,100134.31
2023-01-11T16:17:54.086Z,100136.41
2023-01-11T16:23:00.097Z,100123.38
2023-01-11T16:28:01.633Z,100125.56
2023-01-11T16:33:26.308Z,100133.63
2023-01-11T16:38:27.763Z,100120.38
2023-01-11T16:43:29.796Z,100130.47
2023-01-11T16:48:31.284Z,100123.44
2023-01-11T16:53:33.666Z,100140.72
2023-01-11T16:58:37.917Z,100134.97
2023-01-11T17:03:53.062Z,100145.72
2023-01-11T17:08:56.398Z,100144.63
2023-01-11T17:14:09.101Z,100161.63
2023-01-11T17:19:20.329Z,100148.22
2023-01-11T17:24:26.899Z,100142.66
2023-01-11T17:29:40.218Z,100139.50
2023-01-11T17:34:41.719Z,100140.06
2023-01-11T17:39:50.466Z,100138.16
2023-01-11T17:45:11.806Z,100144.06
2023-01-11T17:50:28.425Z,100133.50
2023-01-11T17:55:29.989Z,100128.25
2023-01-11T18:00:31.497Z,100115.00
2023-01-11T18:05:32.993Z,100117.28
2023-01-11T18:10:36.214Z,100116.31
2023-01-11T18:15:37.774Z,100112.16
2023-01-11T18:20:39.364Z,100103.41
2023-01-11T18:25:41.422Z,100101.53
2023-01-11T18:30:47.257Z,100101.00
2023-01-11T18:35:50.374Z,100092.03
2023-01-11T18:40:51.877Z,100086.91
2023-01-11T18:45:53.407Z,100091.16
2023-01-11T18:50:55.439Z,100084.25
2023-01-11T18:55:56.901Z,100078.88
2023-01-11T19:01:00.142Z,100060.88
2023-01-11T19:06:01.634Z,100058.06
2023-01-11T19:11:03.976Z,100059.44
2023-01-11T19:16:06.010Z,100054.50
2023-01-11T19:21:09.162Z,100032.91
2023-01-11T19:26:10.671Z,100035.06
2023-01-11T19:31:12.411Z,100014.69
2023-01-11T19:36:13.910Z,100009.78
2023-01-11T19:41:16.706Z,99995.25
2023-01-11T19:46:30.606Z,99971.44
2023-01-11T19:51:33.258Z,99965.97
2023-01-11T19:56:34.755Z,99951.72
2023-01-11T20:01:36.427Z,99953.47
2023-01-11T20:06:49.914Z,99941.34
2023-01-11T20:11:53.147Z,99941.69
2023-01-11T20:16:54.668Z,99928.31
2023-01-11T20:21:56.467Z,99913.66
2023-01-11T20:27:00.578Z,99918.59
2023-01-11T20:32:21.198Z,99899.00
2023-01-11T20:37:23.584Z,99901.66
2023-01-11T20:42:25.071Z,99905.91
2023-01-11T20:47:26.531Z,99876.56
2023-01-11T20:52:28.015Z,99868.31
2023-01-11T20:57:29.499Z,99860.63
2023-01-11T21:02:31.040Z,99850.69
2023-01-11T21:07:32.522Z,99834.34
2023-01-11T21:12:33.988Z,99824.19
2023-01-11T21:17:35.454Z,99825.03
2023-01-11T21:22:36.907Z,99815.63
2023-01-11T21:27:38.949Z,99812.25
2023-01-11T21:32:40.441Z,99794.69
2023-01-11T21:37:41.913Z,99767.31
2023-01-11T21:42:43.376Z,99763.56
2023-01-11T21:47:44.852Z,99754.28
2023-01-11T21:52:46.319Z,99754.56
2023-01-11T21:57:47.804Z,99775.06
2023-01-11T22:02:49.999Z,99761.91
2023-01-11T22:07:51.472Z,99761.84
2023-01-11T22:12:53.128Z,99795.34
2023-01-11T22:17:54.622Z,99798.16
2023-01-11T22:22:56.098Z,99802.09
2023-01-11T22:27:57.577Z,99802.78
2023-01-11T22:32:59.566Z,99782.31
2023-01-11T22:38:01.114Z,99775.44
2023-01-11T22:43:02.583Z,99806.75
2023-01-11T22:48:04.234Z,99782.06
2023-01-11T22:53:05.690Z,99789.09
2023-01-11T22:58:07.154Z,99787.09
2023-01-11T23:03:08.791Z,99790.50
2023-01-11T23:08:10.386Z,99790.84
2023-01-11T23:13:30.135Z,99807.72
2023-01-11T23:18:31.606Z,99790.84
2023-01-11T23:23:33.078Z,99777.16
2023-01-11T23:28:34.738Z,99783.94
2023-01-11T23:33:37.558Z,99784.25
2023-01-11T23:38:39.097Z,99791.59
2023-01-11T23:43:40.585Z,99803.38
2023-01-11T23:48:42.043Z,99781.75
2023-01-11T23:53:43.567Z,99812.78
2023-01-11T23:58:45.055Z,99791.50
